createdAt,value
2022-10-30T00:01:24.451Z,15.03
2022-10-30T00:03:54.213Z,13.70
2022-10-30T00:06:22.395Z,13.40
2022-10-30T00:08:53.470Z,19.10
2022-10-30T00:11:21.881Z,18.10
2022-10-30T00:13:49.999Z,20.40
2022-10-30T00:16:20.108Z,13.43
2022-10-30T00:18:48.566Z,18.30
2022-10-30T00:21:18.442Z,17.73
2022-10-30T00:23:51.591Z,14.00
2022-10-30T00:26:21.124Z,12.03
2022-10-30T00:28:51.425Z,13.40
2022-10-30T00:31:20.008Z,14.27
2022-10-30T00:33:51.389Z,13.57
2022-10-30T00:36:21.691Z,11.47
2022-10-30T00:38:49.811Z,13.83
2022-10-30T00:41:20.358Z,15.87
2022-10-30T00:43:49.330Z,19.17
2022-10-30T00:46:22.014Z,14.83
2022-10-30T00:48:53.969Z,19.67
2022-10-30T00:51:23.732Z,14.00
2022-10-30T00:53:53.698Z,14.17
2022-10-30T00:56:24.974Z,13.30
2022-10-30T00:58:58.042Z,16.57
2022-10-30T01:01:32.983Z,17.07
2022-10-30T01:04:03.566Z,13.97
2022-10-30T01:06:35.379Z,17.70
2022-10-30T01:09:04.796Z,14.67
2022-10-30T01:11:33.526Z,16.53
2022-10-30T01:14:05.840Z,12.57
2022-10-30T01:16:59.148Z,12.00
2022-10-30T01:19:32.364Z,15.00
2022-10-30T01:22:17.316Z,14.80
2022-10-30T01:24:59.375Z,16.10
2022-10-30T01:27:40.452Z,17.67
2022-10-30T01:30:27.631Z,15.50
2022-10-30T01:33:09.475Z,14.30
2022-10-30T01:35:42.784Z,19.00
2022-10-30T01:38:20.495Z,12.23
2022-10-30T01:40:49.288Z,16.03
2022-10-30T01:43:18.223Z,12.93
2022-10-30T01:46:06.157Z,18.60
2022-10-30T01:48:54.199Z,19.47
2022-10-30T01:51:31.804Z,12.67
2022-10-30T01:54:10.775Z,16.43
2022-10-30T01:56:44.272Z,14.20
2022-10-30T01:59:18.267Z,15.93
2022-10-30T02:02:52.210Z,18.60
2022-10-30T02:05:27.063Z,14.87
2022-10-30T02:12:23.038Z,19.23
2022-10-30T02:14:53.973Z,15.80
2022-10-30T02:17:22.615Z,16.90
2022-10-30T02:19:51.104Z,16.70
2022-10-30T02:22:20.804Z,12.73
2022-10-30T02:24:48.958Z,14.90
2022-10-30T02:27:17.174Z,14.07
2022-10-30T02:29:45.298Z,17.90
2022-10-30T02:32:13.409Z,19.47
2022-10-30T02:34:43.045Z,18.70
2022-10-30T02:37:11.595Z,15.50
2022-10-30T02:39:41.084Z,18.87
2022-10-30T02:42:09.579Z,19.50
2022-10-30T02:44:37.906Z,17.20
2022-10-30T02:47:06.391Z,15.90
2022-10-30T02:49:34.539Z,19.27
2022-10-30T02:52:02.712Z,17.50
2022-10-30T02:54:30.876Z,18.63
2022-10-30T02:57:00.537Z,20.40
2022-10-30T02:59:28.715Z,16.33
2022-10-30T03:01:57.007Z,19.20
2022-10-30T03:04:25.553Z,14.23
2022-10-30T03:06:53.698Z,17.70
2022-10-30T03:09:21.939Z,17.63
2022-10-30T03:11:50.387Z,16.03
2022-10-30T03:14:19.965Z,19.47
2022-10-30T03:16:48.073Z,18.23
2022-10-30T03:19:16.695Z,17.53
2022-10-30T03:21:45.089Z,16.63
2022-10-30T03:24:13.326Z,16.60
2022-10-30T03:26:41.541Z,18.37
2022-10-30T03:29:09.898Z,16.87
2022-10-30T03:31:39.384Z,14.63
2022-10-30T03:34:07.662Z,12.37
2022-10-30T03:36:36.216Z,17.57
2022-10-30T03:39:04.529Z,14.07
2022-10-30T03:41:32.802Z,24.10
2022-10-30T03:44:01.376Z,14.27
2022-10-30T03:46:31.639Z,21.97
2022-10-30T03:49:01.552Z,11.30
2022-10-30T03:51:29.755Z,18.80
2022-10-30T03:53:58.019Z,20.20
2022-10-30T03:56:26.344Z,20.20
2022-10-30T03:58:54.701Z,17.10
2022-10-30T04:01:22.961Z,17.33
2022-10-30T04:03:51.369Z,17.23
2022-10-30T04:06:21.140Z,26.17
2022-10-30T04:08:49.849Z,16.87
2022-10-30T04:11:18.219Z,14.10
2022-10-30T04:13:46.782Z,19.47
2022-10-30T04:16:15.309Z,18.27
2022-10-30T04:18:43.449Z,14.97
2022-10-30T04:21:11.781Z,16.57
2022-10-30T04:23:41.499Z,23.43
2022-10-30T04:26:09.659Z,18.07
2022-10-30T04:28:39.684Z,22.17
2022-10-30T04:31:08.263Z,23.67
2022-10-30T04:33:36.382Z,16.83
2022-10-30T04:36:04.821Z,20.83
2022-10-30T04:38:33.185Z,17.00
2022-10-30T04:41:02.898Z,16.97
2022-10-30T04:43:30.992Z,20.03
2022-10-30T04:45:59.154Z,19.10
2022-10-30T04:48:27.786Z,15.73
2022-10-30T04:50:56.122Z,20.00
2022-10-30T04:53:24.629Z,17.50
2022-10-30T04:55:55.904Z,18.73
2022-10-30T04:58:25.724Z,25.03
2022-10-30T05:00:55.783Z,19.73
2022-10-30T05:07:54.631Z,18.77
2022-10-30T05:10:23.155Z,15.97
2022-10-30T05:12:54.090Z,19.37
2022-10-30T05:15:25.108Z,21.40
2022-10-30T05:17:54.118Z,28.57
2022-10-30T05:20:22.543Z,23.00
2022-10-30T05:22:55.857Z,24.67
2022-10-30T05:25:24.646Z,20.73
2022-10-30T05:27:58.758Z,17.23
2022-10-30T05:30:28.738Z,26.30
2022-10-30T05:33:00.829Z,19.30
2022-10-30T05:35:29.796Z,15.60
2022-10-30T05:37:58.142Z,22.07
2022-10-30T05:40:26.730Z,14.50
2022-10-30T05:42:55.242Z,15.60
2022-10-30T05:45:23.586Z,22.07
2022-10-30T05:47:58.258Z,21.80
2022-10-30T05:50:27.045Z,30.70
2022-10-30T05:52:57.660Z,24.27
2022-10-30T05:55:26.391Z,25.43
2022-10-30T05:57:58.176Z,23.07
2022-10-30T06:00:27.048Z,19.77
2022-10-30T06:03:02.877Z,21.27
2022-10-30T06:05:33.079Z,17.27
2022-10-30T06:08:01.511Z,25.30
2022-10-30T06:10:30.717Z,24.03
2022-10-30T06:13:01.004Z,18.57
2022-10-30T06:15:30.983Z,21.23
2022-10-30T06:17:59.656Z,20.50
2022-10-30T06:20:31.550Z,14.73
2022-10-30T06:23:01.657Z,25.97
2022-10-30T06:25:33.130Z,24.33
2022-10-30T06:28:02.891Z,22.77
2022-10-30T06:30:31.353Z,22.27
2022-10-30T06:33:00.257Z,22.47
2022-10-30T06:35:30.262Z,19.17
2022-10-30T06:38:00.296Z,22.00
2022-10-30T06:40:30.085Z,18.97
2022-10-30T06:42:59.553Z,20.20
2022-10-30T06:45:27.874Z,21.70
2022-10-30T06:47:56.347Z,20.23
2022-10-30T06:50:25.262Z,21.37
2022-10-30T06:52:55.618Z,23.53
2022-10-30T06:55:24.120Z,20.60
2022-10-30T06:57:56.210Z,24.20
2022-10-30T07:00:25.190Z,25.97
2022-10-30T07:03:01.203Z,20.47
2022-10-30T07:05:30.024Z,20.60
2022-10-30T07:07:59.884Z,22.40
2022-10-30T07:10:28.167Z,19.40
2022-10-30T07:12:59.053Z,20.73
2022-10-30T07:15:27.621Z,14.23
2022-10-30T07:18:00.926Z,22.43
2022-10-30T07:20:30.957Z,19.90
2022-10-30T07:23:00.924Z,21.17
2022-10-30T07:25:29.559Z,22.97
2022-10-30T07:27:59.096Z,17.13
2022-10-30T07:30:28.800Z,20.07
2022-10-30T07:33:02.818Z,18.17
2022-10-30T07:35:32.811Z,20.80
2022-10-30T07:38:05.731Z,14.60
2022-10-30T07:40:34.692Z,23.50
2022-10-30T07:43:04.238Z,20.83
2022-10-30T07:45:33.483Z,19.97
2022-10-30T07:48:02.430Z,16.23
2022-10-30T07:50:31.028Z,15.00
2022-10-30T07:52:59.670Z,22.17
2022-10-30T07:55:29.429Z,15.50
2022-10-30T07:57:57.872Z,18.57
2022-10-30T08:00:26.354Z,14.80
2022-10-30T08:02:58.493Z,19.60
2022-10-30T08:05:30.018Z,17.60
2022-10-30T08:07:59.201Z,19.77
2022-10-30T08:10:29.085Z,11.60
2022-10-30T08:12:57.400Z,14.20
2022-10-30T08:15:26.104Z,14.97
2022-10-30T08:17:54.693Z,15.93
2022-10-30T08:20:24.313Z,19.03
2022-10-30T08:22:53.816Z,19.17
2022-10-30T08:25:24.818Z,17.67
2022-10-30T08:27:57.503Z,15.87
2022-10-30T08:30:27.390Z,14.00
2022-10-30T08:32:59.944Z,15.07
2022-10-30T08:35:28.622Z,15.30
2022-10-30T08:37:57.296Z,15.80
2022-10-30T08:40:27.369Z,22.27
2022-10-30T08:42:58.556Z,12.50
2022-10-30T08:45:30.926Z,17.07
2022-10-30T08:48:01.195Z,18.53
2022-10-30T08:50:30.135Z,21.57
2022-10-30T08:53:01.792Z,17.73
2022-10-30T08:55:30.827Z,18.23
2022-10-30T08:58:00.966Z,15.60
2022-10-30T09:00:29.642Z,20.47
2022-10-30T09:02:58.293Z,14.43
2022-10-30T09:05:26.986Z,13.20
2022-10-30T09:07:58.991Z,17.70
2022-10-30T09:10:27.531Z,17.50
2022-10-30T09:12:57.049Z,16.90
2022-10-30T09:15:27.841Z,12.37
2022-10-30T09:18:01.492Z,15.67
2022-10-30T09:20:30.462Z,12.97
2022-10-30T09:22:59.155Z,15.27
2022-10-30T09:25:27.731Z,14.40
2022-10-30T09:27:56.225Z,17.70
2022-10-30T09:30:24.446Z,15.57
2022-10-30T09:32:58.606Z,21.97
2022-10-30T09:35:27.551Z,12.10
2022-10-30T09:37:56.000Z,17.10
2022-10-30T09:40:30.985Z,15.27
2022-10-30T09:43:06.573Z,21.33
2022-10-30T09:46:13.009Z,22.27
2022-10-30T09:49:00.818Z,14.00
2022-10-30T09:51:43.629Z,14.27
2022-10-30T09:54:22.397Z,17.40
2022-10-30T09:57:01.174Z,20.67
2022-10-30T09:59:42.188Z,12.53
2022-10-30T10:02:22.870Z,17.87
2022-10-30T10:04:57.544Z,13.70
2022-10-30T10:07:31.294Z,18.87
2022-10-30T10:10:04.465Z,15.77
2022-10-30T10:12:39.960Z,10.07
2022-10-30T10:15:15.718Z,19.17
2022-10-30T10:17:46.709Z,13.43
2022-10-30T10:20:25.067Z,14.73
2022-10-30T10:22:53.176Z,15.67
2022-10-30T10:25:22.259Z,10.27
2022-10-30T10:28:03.408Z,16.77
2022-10-30T10:30:43.316Z,12.50
2022-10-30T10:33:38.419Z,11.30
2022-10-30T10:36:21.797Z,16.17
2022-10-30T10:39:03.775Z,13.20
2022-10-30T10:41:51.047Z,13.50
2022-10-30T10:44:34.034Z,21.60
2022-10-30T10:47:16.257Z,14.07
2022-10-30T10:49:58.255Z,22.63
2022-10-30T10:52:37.613Z,14.83
2022-10-30T10:55:08.573Z,17.50
2022-10-30T10:57:39.417Z,15.57
2022-10-30T11:00:10.053Z,12.97
2022-10-30T11:02:42.604Z,14.40
2022-10-30T11:05:28.777Z,20.17
2022-10-30T11:08:03.281Z,16.70
2022-10-30T11:10:31.561Z,13.67
2022-10-30T11:13:01.944Z,15.70
2022-10-30T11:15:40.931Z,12.33
2022-10-30T11:18:10.710Z,14.87
2022-10-30T11:20:43.982Z,15.80
2022-10-30T11:23:38.647Z,13.90
2022-10-30T11:26:29.929Z,12.23
2022-10-30T11:29:03.145Z,15.00
2022-10-30T11:31:35.517Z,12.90
2022-10-30T11:34:15.999Z,17.93
2022-10-30T11:36:45.009Z,15.13
2022-10-30T11:39:19.971Z,12.57
2022-10-30T11:41:55.777Z,11.80
2022-10-30T11:44:24.922Z,10.97
2022-10-30T11:46:53.383Z,15.87
2022-10-30T11:49:34.831Z,11.13
2022-10-30T11:52:03.677Z,20.13
2022-10-30T11:54:37.881Z,13.43
2022-10-30T11:57:12.657Z,14.33
2022-10-30T11:59:47.149Z,18.43
2022-10-30T12:02:27.040Z,14.73
2022-10-30T12:04:56.074Z,10.90
2022-10-30T12:07:30.912Z,14.03
2022-10-30T12:10:02.455Z,17.30
2022-10-30T12:12:34.752Z,15.47
2022-10-30T12:15:13.102Z,11.17
2022-10-30T12:17:41.809Z,15.40
2022-10-30T12:20:16.237Z,19.83
2022-10-30T12:22:44.553Z,16.07
2022-10-30T12:25:24.537Z,15.03
2022-10-30T12:28:00.567Z,15.27
2022-10-30T12:30:32.236Z,12.97
2022-10-30T12:33:05.253Z,18.83
2022-10-30T12:35:41.862Z,20.63
2022-10-30T12:38:18.873Z,14.03
2022-10-30T12:40:59.618Z,15.03
2022-10-30T12:43:28.813Z,18.37
2022-10-30T12:46:05.894Z,23.70
2022-10-30T12:48:38.978Z,20.23
2022-10-30T12:51:19.755Z,14.37
2022-10-30T12:53:59.137Z,15.73
2022-10-30T12:56:33.911Z,15.67
2022-10-30T12:59:26.094Z,17.10
2022-10-30T13:02:01.032Z,16.67
2022-10-30T13:04:34.429Z,21.13
2022-10-30T13:07:14.833Z,15.83
2022-10-30T13:09:50.865Z,13.80
2022-10-30T13:12:24.949Z,16.07
2022-10-30T13:14:58.242Z,16.60
2022-10-30T13:17:28.671Z,18.40
2022-10-30T13:19:57.158Z,18.03
2022-10-30T13:22:30.634Z,17.00
2022-10-30T13:25:09.314Z,16.60
2022-10-30T13:27:45.321Z,14.63
2022-10-30T13:30:17.883Z,15.10
2022-10-30T13:32:59.192Z,12.33
2022-10-30T13:35:35.553Z,16.70
2022-10-30T13:38:26.295Z,15.60
2022-10-30T13:41:00.241Z,16.00
2022-10-30T13:43:41.736Z,14.33
2022-10-30T13:46:25.896Z,16.70
2022-10-30T13:49:19.040Z,18.00
2022-10-30T13:51:55.717Z,15.93
2022-10-30T13:54:30.719Z,14.43
2022-10-30T13:57:06.943Z,15.60
2022-10-30T13:59:57.734Z,17.53
2022-10-30T14:02:53.104Z,16.87
2022-10-30T14:05:32.144Z,12.80
2022-10-30T14:11:55.492Z,19.33
2022-10-30T14:14:34.338Z,16.93
2022-10-30T14:17:13.114Z,16.03
2022-10-30T14:20:18.710Z,17.77
2022-10-30T14:23:08.217Z,13.80
2022-10-30T14:25:36.822Z,26.37
2022-10-30T14:28:05.823Z,13.77
2022-10-30T14:30:36.981Z,12.43
2022-10-30T14:33:06.529Z,11.80
2022-10-30T14:35:41.858Z,20.77
2022-10-30T14:38:37.084Z,20.90
2022-10-30T14:41:57.364Z,14.73
2022-10-30T14:45:02.568Z,14.07
2022-10-30T14:47:56.047Z,11.70
2022-10-30T14:50:47.466Z,12.30
2022-10-30T14:53:31.347Z,10.23
2022-10-30T14:56:07.225Z,7.93
2022-10-30T14:58:36.761Z,9.50
2022-10-30T15:01:37.288Z,6.77
2022-10-30T15:04:20.062Z,10.57
2022-10-30T15:07:10.001Z,6.53
2022-10-30T15:09:49.921Z,11.23
2022-10-30T15:12:35.704Z,9.93
2022-10-30T15:15:08.849Z,8.23
2022-10-30T15:17:41.096Z,8.23
2022-10-30T15:20:16.724Z,8.93
2022-10-30T15:22:49.066Z,9.70
2022-10-30T15:25:20.968Z,7.00
2022-10-30T15:27:52.789Z,11.67
2022-10-30T15:30:22.710Z,6.87
2022-10-30T15:32:51.189Z,10.97
2022-10-30T15:35:21.537Z,10.10
2022-10-30T15:38:06.442Z,8.57
2022-10-30T15:40:36.292Z,7.20
2022-10-30T15:43:06.949Z,9.40
2022-10-30T15:45:37.453Z,7.83
2022-10-30T15:48:10.030Z,6.07
2022-10-30T15:50:48.089Z,6.67
2022-10-30T15:53:20.775Z,8.63
2022-10-30T15:55:50.413Z,6.37
2022-10-30T15:58:23.942Z,9.33
2022-10-30T16:01:00.316Z,3.00
2022-10-30T16:03:29.537Z,5.97
2022-10-30T16:06:15.083Z,5.83
2022-10-30T16:08:48.932Z,8.83
2022-10-30T16:11:17.888Z,6.83
2022-10-30T16:13:46.118Z,5.73
2022-10-30T16:16:27.215Z,6.97
2022-10-30T16:18:59.606Z,3.27
2022-10-30T16:21:31.036Z,6.70
2022-10-30T16:24:02.661Z,8.57
2022-10-30T16:26:33.849Z,6.83
2022-10-30T16:29:09.945Z,5.90
2022-10-30T16:31:38.960Z,7.53
2022-10-30T16:34:12.293Z,7.40
2022-10-30T16:36:42.235Z,6.13
2022-10-30T16:39:16.690Z,12.00
2022-10-30T16:41:45.657Z,7.90
2022-10-30T16:44:26.350Z,5.80
2022-10-30T16:46:57.088Z,8.83
2022-10-30T16:49:28.003Z,4.93
2022-10-30T16:51:59.890Z,6.87
2022-10-30T16:54:32.650Z,7.70
2022-10-30T16:57:03.212Z,7.20
2022-10-30T16:59:37.873Z,12.40
2022-10-30T17:02:16.028Z,5.10
2022-10-30T17:09:23.606Z,7.23
2022-10-30T17:12:08.367Z,10.20
2022-10-30T17:14:47.538Z,8.73
2022-10-30T17:17:24.996Z,11.33
2022-10-30T17:19:58.226Z,8.97
2022-10-30T17:22:27.773Z,13.50
2022-10-30T17:24:56.308Z,17.57
2022-10-30T17:27:45.165Z,10.07
2022-10-30T17:30:40.478Z,7.00
2022-10-30T17:33:36.407Z,5.43
2022-10-30T17:36:06.106Z,4.90
2022-10-30T17:38:34.567Z,8.87
2022-10-30T17:41:03.613Z,8.10
2022-10-30T17:43:36.160Z,14.50
2022-10-30T17:46:04.404Z,9.93
2022-10-30T17:48:33.063Z,12.47
2022-10-30T17:51:01.239Z,9.47
2022-10-30T17:53:29.976Z,16.73
2022-10-30T17:56:01.713Z,12.77
2022-10-30T17:58:57.271Z,16.30
2022-10-30T18:01:27.245Z,17.70
2022-10-30T18:04:21.719Z,22.73
2022-10-30T18:06:50.597Z,18.77
2022-10-30T18:09:18.713Z,11.67
2022-10-30T18:11:47.249Z,18.47
2022-10-30T18:14:17.249Z,12.47
2022-10-30T18:16:45.608Z,14.07
2022-10-30T18:19:13.950Z,17.10
2022-10-30T18:21:42.121Z,11.50
2022-10-30T18:24:12.864Z,14.73
2022-10-30T18:26:41.542Z,11.80
2022-10-30T18:29:09.923Z,13.80
2022-10-30T18:31:40.425Z,14.60
2022-10-30T18:34:18.107Z,10.40
2022-10-30T18:36:46.242Z,14.63
2022-10-30T18:39:14.973Z,13.43
2022-10-30T18:41:45.881Z,10.23
2022-10-30T18:44:16.320Z,13.70
2022-10-30T18:46:46.177Z,16.20
2022-10-30T18:49:14.435Z,14.50
2022-10-30T18:51:43.120Z,15.00
2022-10-30T18:54:16.103Z,18.63
2022-10-30T18:56:44.553Z,18.87
2022-10-30T18:59:12.704Z,16.67
2022-10-30T19:01:41.303Z,21.47
2022-10-30T19:04:12.146Z,16.30
2022-10-30T19:06:40.448Z,14.83
2022-10-30T19:09:08.802Z,22.17
2022-10-30T19:11:39.425Z,15.17
2022-10-30T19:14:13.689Z,10.87
2022-10-30T19:16:42.187Z,16.20
2022-10-30T19:19:11.690Z,18.70
2022-10-30T19:21:40.039Z,16.63
2022-10-30T19:24:14.989Z,16.23
2022-10-30T19:26:43.209Z,15.37
2022-10-30T19:29:11.509Z,13.80
2022-10-30T19:31:39.666Z,12.67
2022-10-30T19:34:08.208Z,13.13
2022-10-30T19:36:38.868Z,12.90
2022-10-30T19:39:13.001Z,15.17
2022-10-30T19:41:42.212Z,16.60
2022-10-30T19:44:10.775Z,15.43
2022-10-30T19:46:39.184Z,15.43
2022-10-30T19:49:17.584Z,14.97
2022-10-30T19:51:47.341Z,26.33
2022-10-30T19:54:16.038Z,15.27
2022-10-30T19:56:44.343Z,14.47
2022-10-30T19:59:14.405Z,15.17
2022-10-30T20:01:44.563Z,12.37
2022-10-30T20:04:13.484Z,15.73
2022-10-30T20:06:41.936Z,13.17
2022-10-30T20:09:13.227Z,19.10
2022-10-30T20:11:41.434Z,17.17
2022-10-30T20:14:09.911Z,20.73
2022-10-30T20:16:38.354Z,18.77
2022-10-30T20:19:27.634Z,17.87
2022-10-30T20:21:55.923Z,19.43
2022-10-30T20:24:25.625Z,20.67
2022-10-30T20:26:55.986Z,15.27
2022-10-30T20:29:24.439Z,20.97
2022-10-30T20:31:52.603Z,21.00
2022-10-30T20:34:20.788Z,15.47
2022-10-30T20:36:49.796Z,14.07
2022-10-30T20:39:17.990Z,20.40
2022-10-30T20:41:47.728Z,27.37
2022-10-30T20:44:15.942Z,19.77
2022-10-30T20:46:44.439Z,16.90
2022-10-30T20:49:17.690Z,14.63
2022-10-30T20:51:46.977Z,18.60
2022-10-30T20:54:18.963Z,20.37
2022-10-30T20:56:48.641Z,11.60
2022-10-30T20:59:16.940Z,16.43
2022-10-30T21:01:46.948Z,15.10
2022-10-30T21:04:18.336Z,16.43
2022-10-30T21:06:46.485Z,20.17
2022-10-30T21:09:14.815Z,13.17
2022-10-30T21:11:43.123Z,12.00
2022-10-30T21:14:12.783Z,13.73
2022-10-30T21:16:41.565Z,11.27
2022-10-30T21:19:10.006Z,6.87
2022-10-30T21:21:38.389Z,9.30
2022-10-30T21:24:07.324Z,9.83
2022-10-30T21:26:36.628Z,14.07
2022-10-30T21:29:05.096Z,10.77
2022-10-30T21:31:34.887Z,10.40
2022-10-30T21:34:03.334Z,9.60
2022-10-30T21:36:31.766Z,10.57
2022-10-30T21:39:00.984Z,11.67
2022-10-30T21:41:29.636Z,13.23
2022-10-30T21:43:59.459Z,15.00
2022-10-30T21:46:29.925Z,9.23
2022-10-30T21:49:04.273Z,10.30
2022-10-30T21:51:33.194Z,8.20
2022-10-30T21:54:01.613Z,8.13
2022-10-30T21:56:31.031Z,10.60
2022-10-30T21:59:00.753Z,10.27
2022-10-30T22:01:30.891Z,10.37
2022-10-30T22:04:01.886Z,12.87
2022-10-30T22:06:30.833Z,10.73
2022-10-30T22:08:59.671Z,11.17
2022-10-30T22:11:29.307Z,14.43
2022-10-30T22:13:59.063Z,14.13
2022-10-30T22:16:28.441Z,13.70
2022-10-30T22:18:57.338Z,17.27
2022-10-30T22:21:27.595Z,15.70
2022-10-30T22:23:55.843Z,12.60
2022-10-30T22:26:24.889Z,13.60
2022-10-30T22:28:54.674Z,19.57
2022-10-30T22:31:24.160Z,17.80
2022-10-30T22:33:53.139Z,21.63
2022-10-30T22:36:23.024Z,15.53
2022-10-30T22:38:57.873Z,16.50
2022-10-30T22:41:28.667Z,18.77
2022-10-30T22:44:00.227Z,17.63
2022-10-30T22:46:30.367Z,19.57
2022-10-30T22:48:58.854Z,17.57
2022-10-30T22:51:27.556Z,19.30
2022-10-30T22:53:59.335Z,20.23
2022-10-30T22:56:29.047Z,23.40
2022-10-30T22:58:58.118Z,21.13
2022-10-30T23:01:27.877Z,21.10
2022-10-30T23:03:57.711Z,16.40
2022-10-30T23:06:28.611Z,16.53
2022-10-30T23:09:00.320Z,18.43
2022-10-30T23:11:29.701Z,24.73
2022-10-30T23:14:00.652Z,23.23
2022-10-30T23:16:29.624Z,20.03
2022-10-30T23:18:58.732Z,20.03
2022-10-30T23:21:28.911Z,22.33
2022-10-30T23:23:59.527Z,18.87
2022-10-30T23:26:29.908Z,21.47
2022-10-30T23:28:59.764Z,19.70
2022-10-30T23:31:32.523Z,19.47
2022-10-30T23:34:02.753Z,23.40
2022-10-30T23:36:31.459Z,21.97
2022-10-30T23:39:03.093Z,18.83
2022-10-30T23:41:34.353Z,28.97
2022-10-30T23:44:05.804Z,28.43
2022-10-30T23:46:34.310Z,20.97
2022-10-30T23:49:03.383Z,20.53
2022-10-30T23:51:32.566Z,21.80
2022-10-30T23:54:02.074Z,23.53
2022-10-30T23:56:30.900Z,25.00
2022-10-30T23:58:59.678Z,22.83
